Time;durP1;ratioP1;P1;durP2;ratioP2;P2;SDS_P1;SDS_P2;PMS_P1;PMS_P2;Temp;Humidity;BMP_temperature;BMP_pressure;BME280_temperature;BME280_humidity;BME280_pressure;Samples;Min_cycle;Max_cycle;Signal;HPM_P1;HPM_P2
2021/08/26 00:07:41;;;;;;;7.47;6.77;;;16.20;62.00;;;15.18;69.32;97644.25;5112044;28;20493;-78
2021/08/26 00:10:29;;;;;;;7.47;6.77;;;16.20;62.20;;;15.26;69.29;97648.44;5088945;28;20458;-78
2021/08/26 00:13:17;;;;;;;8.00;7.03;;;16.20;62.10;;;15.28;69.76;97655.28;5112752;28;20455;-78
2021/08/26 00:16:05;;;;;;;6.77;6.13;;;16.20;62.50;;;15.23;69.35;97643.50;5111411;28;20466;-78
2021/08/26 00:18:54;;;;;;;8.57;6.80;;;16.20;62.30;;;15.18;69.47;97636.09;5089220;28;20433;-78
2021/08/26 00:21:43;;;;;;;8.97;6.83;;;16.10;62.10;;;15.11;69.83;97619.97;5113860;28;20440;-78
2021/08/26 00:24:30;;;;;;;9.40;7.00;;;16.10;62.10;;;15.07;70.07;97634.31;5105146;28;20452;-78
2021/08/26 00:27:18;;;;;;;7.60;6.53;;;16.00;62.10;;;14.88;70.09;97599.31;5093546;27;20439;-78
2021/08/26 00:30:06;;;;;;;6.80;6.10;;;16.00;62.40;;;15.03;69.86;97623.16;5116479;27;21026;-78
2021/08/26 00:32:55;;;;;;;6.90;6.20;;;16.00;62.30;;;15.07;69.81;97623.44;5117529;27;20435;-78
2021/08/26 00:35:45;;;;;;;8.10;6.90;;;16.00;62.40;;;15.02;69.91;97624.22;5084801;28;20431;-78
2021/08/26 00:38:33;;;;;;;6.70;6.00;;;16.00;62.40;;;14.96;70.34;97609.75;5111643;27;20493;-78
2021/08/26 00:41:22;;;;;;;6.87;6.07;;;15.90;62.40;;;15.06;69.73;97622.63;5116083;27;20446;-78
2021/08/26 00:44:09;;;;;;;7.20;6.50;;;16.00;62.30;;;15.09;69.25;97622.13;5118023;27;20438;-78
2021/08/26 00:46:57;;;;;;;7.13;6.43;;;16.00;62.20;;;15.06;69.41;97609.03;5113677;27;20439;-78
2021/08/26 00:49:44;;;;;;;7.10;6.30;;;16.00;62.20;;;15.09;69.30;97616.69;5115288;27;20434;-78
2021/08/26 00:52:38;;;;;;;7.40;6.10;;;16.00;61.90;;;15.11;69.16;97613.72;5100889;27;20424;-78
2021/08/26 00:55:25;;;;;;;8.60;6.57;;;16.00;61.90;;;15.22;68.62;97612.72;5119175;27;20436;-78
2021/08/26 00:58:13;;;;;;;6.80;5.90;;;16.00;61.90;;;15.18;68.77;97614.31;5127131;27;20820;-78
2021/08/26 01:01:04;;;;;;;7.77;6.00;;;16.10;61.70;;;15.17;69.51;97615.41;5115333;27;20443;-78
2021/08/26 01:03:58;;;;;;;7.77;6.67;;;16.10;62.00;;;15.13;69.01;97606.94;5118457;27;20538;-79
2021/08/26 01:06:58;;;;;;;7.20;6.27;;;16.10;61.90;;;15.26;68.69;97600.28;5116285;28;20432;-78
2021/08/26 01:09:52;;;;;;;7.33;6.53;;;16.10;61.60;;;15.13;68.46;97589.78;5114996;27;20518;-78
2021/08/26 01:12:40;;;;;;;8.37;6.43;;;16.10;61.60;;;15.20;68.47;97592.31;5115134;28;20428;-78
2021/08/26 01:15:27;;;;;;;7.20;6.10;;;16.20;61.60;;;15.22;68.08;97577.34;5097520;28;20519;-78
2021/08/26 01:18:15;;;;;;;7.73;6.20;;;16.20;61.40;;;15.28;68.13;97589.97;5115498;28;20458;-78
2021/08/26 01:21:03;;;;;;;10.50;6.40;;;16.20;61.40;;;15.29;68.41;97582.59;5117122;27;20427;-78
2021/08/26 01:23:56;;;;;;;7.63;6.30;;;16.20;61.50;;;15.33;68.24;97578.31;5104694;28;20521;-78
2021/08/26 01:26:52;;;;;;;7.33;6.10;;;16.20;61.50;;;15.28;67.83;97560.03;5132452;27;20431;-78
2021/08/26 01:29:41;;;;;;;7.20;6.50;;;16.30;61.50;;;15.18;68.32;97554.47;5127848;27;20552;-78
2021/08/26 01:32:30;;;;;;;6.80;6.10;;;16.20;61.50;;;15.26;68.38;97574.94;5111729;27;20444;-78
2021/08/26 01:35:18;;;;;;;7.20;5.40;;;16.20;61.50;;;15.21;68.79;97564.03;5110074;28;20459;-78
2021/08/26 01:38:05;;;;;;;7.67;6.37;;;16.10;61.50;;;15.13;68.84;97557.94;5124540;27;20491;-78
2021/08/26 01:40:53;;;;;;;7.27;6.27;;;16.10;61.50;;;15.15;68.60;97566.69;5120794;27;20514;-78
2021/08/26 01:43:43;;;;;;;7.13;6.50;;;16.10;61.60;;;15.19;68.58;97549.88;5114436;27;20799;-78
2021/08/26 01:46:31;;;;;;;7.93;6.40;;;16.10;61.60;;;15.14;68.44;97562.31;5102065;27;20538;-78
2021/08/26 01:49:20;;;;;;;8.13;6.40;;;16.10;61.60;;;15.07;69.15;97558.16;5112444;28;20481;-78
2021/08/26 01:52:07;;;;;;;7.20;6.50;;;16.00;61.70;;;15.01;69.26;97555.38;5116889;27;20427;-78
2021/08/26 01:54:57;;;;;;;7.23;6.37;;;16.00;61.80;;;14.99;69.62;97552.09;5101082;27;20714;-78
2021/08/26 01:57:45;;;;;;;9.20;6.27;;;15.90;62.00;;;14.96;70.08;97547.19;5119900;27;20525;-78
2021/08/26 02:00:35;;;;;;;6.67;5.93;;;15.90;62.30;;;14.97;70.26;97551.53;5098055;28;21103;-78
2021/08/26 02:03:22;;;;;;;9.80;6.53;;;15.90;62.60;;;14.99;69.94;97545.84;5118166;27;20430;-80
2021/08/26 02:06:10;;;;;;;7.30;6.00;;;15.90;62.40;;;14.95;70.47;97542.81;5109475;28;20513;-78
2021/08/26 02:08:57;;;;;;;9.03;6.10;;;15.90;62.60;;;14.94;70.55;97543.06;5111541;28;20506;-78
2021/08/26 02:11:46;;;;;;;6.83;5.90;;;15.80;62.50;;;14.93;70.76;97534.06;5106939;28;20799;-78
2021/08/26 02:14:35;;;;;;;9.80;6.50;;;15.90;62.80;;;14.89;70.11;97519.34;5090747;28;20809;-79
2021/08/26 02:17:23;;;;;;;7.17;6.47;;;15.80;62.60;;;14.90;70.25;97536.50;5104632;28;20483;-78
2021/08/26 02:20:13;;;;;;;6.23;5.53;;;15.80;62.80;;;14.79;71.19;97533.66;5094998;28;20438;-78
2021/08/26 02:23:00;;;;;;;6.90;6.20;;;15.70;62.80;;;14.73;71.12;97523.81;5122151;28;20524;-78
2021/08/26 02:25:47;;;;;;;7.50;6.60;;;15.70;62.90;;;14.71;71.14;97524.06;5132089;27;20427;-78
2021/08/26 02:28:35;;;;;;;8.37;6.90;;;15.60;63.10;;;14.65;71.74;97511.47;5114516;28;20459;-78
2021/08/26 02:31:22;;;;;;;9.37;6.43;;;15.60;63.20;;;14.58;72.01;97513.53;5121822;28;20427;-78
2021/08/26 02:34:11;;;;;;;8.20;6.70;;;15.50;63.30;;;14.52;71.74;97520.00;5112397;27;20530;-78
2021/08/26 02:36:58;;;;;;;9.43;7.17;;;15.40;63.30;;;14.42;72.59;97520.69;5096981;27;20424;-78
2021/08/26 02:39:46;;;;;;;7.10;6.40;;;15.40;63.60;;;14.49;72.13;97505.00;5113868;27;20433;-78
2021/08/26 02:42:33;;;;;;;7.73;6.33;;;15.40;63.70;;;14.44;72.29;97516.63;5112258;27;20912;-78
2021/08/26 02:45:24;;;;;;;8.00;6.40;;;15.30;63.50;;;14.48;72.30;97513.41;5114699;27;20517;-79
2021/08/26 02:48:12;;;;;;;7.10;6.40;;;15.40;64.00;;;14.20;72.23;97477.22;5119049;28;20477;-78
2021/08/26 02:51:06;;;;;;;7.13;6.40;;;15.40;63.20;;;14.40;71.59;97507.34;5111627;27;20454;-78
2021/08/26 02:53:53;;;;;;;8.03;6.90;;;15.40;63.30;;;14.51;71.45;97513.72;5124222;27;20465;-79
2021/08/26 02:56:41;;;;;;;10.13;7.13;;;15.40;63.30;;;14.58;71.17;97508.09;5120098;27;20508;-79
2021/08/26 02:59:28;;;;;;;9.73;7.53;;;15.50;63.20;;;14.47;71.45;97506.34;5113470;27;20548;-76
2021/08/26 03:02:18;;;;;;;7.60;6.90;;;15.50;63.10;;;14.37;71.58;97507.88;5114564;27;20439;-77
2021/08/26 03:05:06;;;;;;;7.43;5.93;;;15.40;63.10;;;14.34;71.62;97496.69;5115763;28;20898;-77
2021/08/26 03:07:56;;;;;;;8.23;7.00;;;15.50;63.20;;;14.44;72.55;97503.03;5110692;28;20787;-77
2021/08/26 03:10:43;;;;;;;7.33;6.40;;;15.40;63.70;;;14.40;73.20;97501.09;5114151;27;20438;-76
2021/08/26 03:13:31;;;;;;;13.03;7.23;;;15.40;64.00;;;14.33;73.00;97506.75;5113056;27;21069;-77
2021/08/26 03:16:18;;;;;;;9.50;7.20;;;15.30;63.80;;;14.42;73.43;97488.09;5105330;28;20450;-78
2021/08/26 03:19:06;;;;;;;9.03;6.30;;;15.40;64.30;;;14.36;72.91;97484.50;5117631;28;20431;-79
2021/08/26 03:21:54;;;;;;;7.10;6.40;;;15.40;64.10;;;14.47;73.21;97495.47;5109525;28;20423;-78
2021/08/26 03:24:43;;;;;;;9.03;7.10;;;15.40;64.40;;;14.37;74.71;97491.56;5119875;28;20506;-77
2021/08/26 03:27:31;;;;;;;9.90;7.60;;;15.40;65.40;;;14.26;76.20;97500.66;5109851;28;20434;-77
2021/08/26 03:30:18;;;;;;;8.87;7.97;;;15.30;66.20;;;14.15;76.22;97494.28;5110915;28;20556;-77
2021/08/26 03:33:06;;;;;;;9.00;8.03;;;15.10;66.40;;;14.06;77.60;97488.44;5122156;28;20414;-78
2021/08/26 03:35:53;;;;;;;9.10;8.20;;;15.10;67.70;;;13.96;77.72;97485.59;5123605;28;20538;-78
2021/08/26 03:38:43;;;;;;;8.90;8.00;;;15.00;67.70;;;13.95;78.14;97486.66;5121425;28;20441;-77
2021/08/26 03:41:32;;;;;;;11.27;8.67;;;15.00;68.10;;;14.08;78.67;97497.16;5101453;28;20443;-77
2021/08/26 03:44:20;;;;;;;12.70;8.80;;;15.00;68.80;;;13.98;79.27;97483.44;5112854;28;20445;-77
2021/08/26 03:47:07;;;;;;;10.20;9.13;;;15.00;69.50;;;13.99;78.20;97496.78;5118738;28;20831;-77
2021/08/26 03:49:55;;;;;;;12.77;9.10;;;14.90;68.90;;;13.91;80.59;97499.91;5118087;28;20450;-77
2021/08/26 03:52:44;;;;;;;9.77;8.87;;;14.90;70.80;;;13.80;80.34;97490.81;5095715;28;20907;-78
2021/08/26 03:55:32;;;;;;;11.57;10.23;;;14.90;71.30;;;13.81;81.85;97489.72;5108065;28;20459;-77
2021/08/26 03:58:21;;;;;;;11.60;9.73;;;14.80;72.70;;;13.73;81.93;97496.41;5101069;28;20432;-78
2021/08/26 04:01:09;;;;;;;11.97;10.00;;;14.80;73.30;;;13.66;82.11;97492.22;5095545;28;21261;-78
2021/08/26 04:03:56;;;;;;;11.33;10.20;;;14.70;73.90;;;13.60;83.57;97473.16;5114453;27;20439;-78
2021/08/26 04:06:44;;;;;;;11.77;10.57;;;14.70;75.70;;;13.72;82.68;97496.63;5116593;27;20429;-77
2021/08/26 04:09:32;;;;;;;11.30;9.90;;;14.70;75.70;;;13.72;82.69;97496.63;5113778;27;20431;-78
2021/08/26 04:12:19;;;;;;;12.10;9.90;;;14.80;76.00;;;13.79;82.22;97505.44;5111936;27;20477;-77
2021/08/26 04:15:12;;;;;;;12.13;10.93;;;14.70;75.70;;;13.69;84.87;97497.16;5097079;28;20461;-77
2021/08/26 04:18:00;;;;;;;14.90;11.33;;;14.70;78.70;;;13.61;84.69;97495.66;5099689;27;20458;-78
2021/08/26 04:20:47;;;;;;;15.30;11.13;;;14.60;78.40;;;13.54;85.92;97495.03;5110030;27;20473;-78
2021/08/26 04:23:35;;;;;;;14.50;11.33;;;14.60;80.30;;;13.52;85.26;97503.41;5106949;28;20532;-77
2021/08/26 04:26:22;;;;;;;13.03;11.60;;;14.50;80.20;;;13.44;87.09;97506.56;5098768;28;20514;-77
2021/08/26 04:29:09;;;;;;;13.47;12.10;;;14.50;82.60;;;13.40;88.22;97500.75;5109475;27;20443;-77
2021/08/26 04:31:58;;;;;;;13.70;12.30;;;14.40;84.60;;;13.41;88.68;97498.84;5112829;28;20459;-77
2021/08/26 04:34:46;;;;;;;13.50;12.10;;;14.40;85.90;;;13.23;88.54;97481.75;5115734;27;20445;-76
2021/08/26 04:37:33;;;;;;;13.63;12.27;;;14.40;86.30;;;13.31;89.44;97496.78;5094835;28;20443;-77
2021/08/26 04:40:21;;;;;;;14.30;12.70;;;14.30;87.70;;;13.09;89.14;97483.97;5106828;28;20491;-78
2021/08/26 04:43:08;;;;;;;17.00;12.47;;;14.20;87.60;;;12.97;89.72;97481.34;5120886;27;20525;-78
2021/08/26 04:45:56;;;;;;;14.70;13.13;;;14.20;88.50;;;13.08;91.10;97497.75;5107773;27;20435;-77
2021/08/26 04:48:46;;;;;;;15.03;13.53;;;14.20;90.00;;;12.94;91.70;97484.50;5119067;27;20945;-78
2021/08/26 04:51:34;;;;;;;15.63;14.13;;;14.10;90.90;;;12.93;92.65;97506.47;5114568;27;20436;-77
2021/08/26 04:54:21;;;;;;;16.40;14.70;;;14.00;91.60;;;12.84;93.76;97497.91;5101520;27;20521;-77
2021/08/26 04:57:08;;;;;;;16.60;15.00;;;14.00;92.50;;;12.77;94.36;97498.03;5111421;27;20456;-78
2021/08/26 04:59:56;;;;;;;17.13;15.47;;;13.80;93.40;;;12.58;95.44;97497.41;5106557;27;20432;-78
2021/08/26 05:02:43;;;;;;;18.33;16.50;;;13.70;94.60;;;12.49;96.27;97498.84;5116348;27;20516;-78
2021/08/26 05:05:32;;;;;;;20.47;16.20;;;13.60;95.70;;;12.36;97.12;97495.38;5111914;27;20690;-77
2021/08/26 05:08:19;;;;;;;19.53;17.03;;;13.50;96.90;;;12.32;98.02;97499.59;5116422;27;20802;-77
2021/08/26 05:11:07;;;;;;;20.87;18.60;;;13.50;98.70;;;12.21;98.25;97493.16;5111365;27;20469;-78
2021/08/26 05:13:54;;;;;;;20.80;18.70;;;13.40;99.20;;;12.18;98.90;97486.31;5112777;27;20446;-78
2021/08/26 05:16:41;;;;;;;21.67;19.67;;;13.30;99.90;;;12.21;99.19;97495.03;5109505;27;20481;-78
2021/08/26 05:19:29;;;;;;;23.73;20.93;;;13.30;99.90;;;12.19;99.79;97496.09;5107670;27;20523;-78
2021/08/26 05:22:17;;;;;;;24.07;21.57;;;13.30;99.90;;;12.23;100.00;97490.22;5106389;27;20475;-77
2021/08/26 05:25:06;;;;;;;24.50;21.97;;;13.30;99.90;;;12.35;100.00;97501.81;5105740;27;20473;-78
2021/08/26 05:27:53;;;;;;;23.80;21.40;;;13.40;99.90;;;12.38;100.00;97495.94;5095210;28;20905;-77
2021/08/26 05:30:40;;;;;;;24.83;22.33;;;13.40;99.90;;;12.30;100.00;97502.56;5091142;28;21034;-78
2021/08/26 05:33:30;;;;;;;23.97;21.40;;;13.40;99.90;;;12.24;100.00;97479.13;5119010;27;20444;-80
2021/08/26 05:36:17;;;;;;;23.20;20.77;;;13.40;99.90;;;12.30;100.00;97488.19;5111193;27;20455;-78
2021/08/26 05:39:06;;;;;;;24.10;21.63;;;13.40;99.90;;;12.39;100.00;97485.91;5105399;27;20428;-78
2021/08/26 05:41:53;;;;;;;25.13;21.67;;;13.50;99.90;;;12.37;100.00;97494.31;5110875;27;20431;-77
2021/08/26 05:44:41;;;;;;;25.03;22.43;;;13.50;99.90;;;12.41;100.00;97495.47;5114162;27;20435;-78
2021/08/26 05:47:28;;;;;;;25.27;22.67;;;13.50;99.90;;;12.35;100.00;97496.41;5112478;27;20547;-78
2021/08/26 05:50:15;;;;;;;25.33;22.47;;;13.40;99.90;;;12.30;100.00;97493.59;5107165;28;20460;-78
2021/08/26 05:53:03;;;;;;;27.90;24.50;;;13.40;99.90;;;12.29;100.00;97491.94;5115845;27;20423;-78
2021/08/26 05:55:54;;;;;;;26.43;23.70;;;13.40;99.90;;;12.36;100.00;97491.81;5102225;27;20593;-78
2021/08/26 05:58:42;;;;;;;26.53;23.90;;;13.40;99.90;;;12.37;100.00;97494.31;5095854;28;20470;-78
2021/08/26 06:01:31;;;;;;;26.33;23.53;;;13.50;99.90;;;12.42;100.00;97490.84;5110615;28;20573;-79
2021/08/26 06:04:18;;;;;;;30.00;25.43;;;13.50;99.90;;;12.46;100.00;97483.91;5096587;27;20494;-77
2021/08/26 06:07:05;;;;;;;26.87;24.07;;;13.50;99.90;;;12.62;100.00;97487.72;5107118;27;20534;-76
2021/08/26 06:09:53;;;;;;;25.97;22.90;;;13.60;99.90;;;12.57;100.00;97485.72;5114576;27;20954;-77
2021/08/26 06:12:43;;;;;;;25.90;23.27;;;13.60;99.90;;;12.60;100.00;97484.44;5127586;27;20510;-77
2021/08/26 06:15:32;;;;;;;22.57;20.40;;;13.60;99.90;;;12.57;100.00;97471.38;5112095;27;20451;-77
2021/08/26 06:18:21;;;;;;;22.73;20.40;;;13.60;99.90;;;12.57;100.00;97476.78;5105415;27;20489;-78
2021/08/26 06:21:11;;;;;;;21.10;18.93;;;13.60;99.90;;;12.45;100.00;97452.47;5114821;27;20428;-77
2021/08/26 06:24:00;;;;;;;23.77;21.37;;;13.60;99.90;;;12.60;100.00;97487.13;5099845;28;21092;-77
2021/08/26 06:26:49;;;;;;;20.70;18.60;;;13.60;99.90;;;12.57;100.00;97499.28;5098596;28;20435;-78
2021/08/26 06:29:38;;;;;;;20.37;18.47;;;13.60;99.90;;;12.59;100.00;97491.75;5093360;28;20613;-77
2021/08/26 06:32:25;;;;;;;20.43;18.47;;;13.60;99.90;;;12.50;100.00;97489.66;5108796;28;20510;-78
2021/08/26 06:35:13;;;;;;;19.90;18.10;;;13.60;99.90;;;12.55;100.00;97495.19;5095275;28;20471;-78
2021/08/26 06:38:01;;;;;;;18.70;16.93;;;13.60;99.90;;;12.58;100.00;97489.28;5109494;27;20518;-81
2021/08/26 06:40:50;;;;;;;19.60;17.00;;;13.60;99.90;;;12.47;100.00;97497.19;5118787;27;20506;-80
2021/08/26 06:43:38;;;;;;;17.00;15.30;;;13.60;99.90;;;12.36;100.00;97481.81;5120789;28;20485;-81
2021/08/26 06:46:28;;;;;;;15.00;13.60;;;13.50;99.90;;;12.57;100.00;97493.06;5119700;27;20426;-80
2021/08/26 06:49:16;;;;;;;14.53;13.10;;;13.60;99.90;;;12.58;100.00;97494.69;5118431;27;20440;-81
2021/08/26 06:52:04;;;;;;;14.70;13.30;;;13.70;99.90;;;12.52;100.00;97490.25;5122094;27;20420;-80
2021/08/26 06:54:52;;;;;;;15.40;12.47;;;13.70;99.90;;;12.62;100.00;97495.84;5102606;28;20477;-80
2021/08/26 06:57:40;;;;;;;13.37;12.13;;;13.60;99.90;;;12.63;100.00;97504.81;5118616;27;20499;-80
2021/08/26 07:00:29;;;;;;;15.33;13.93;;;13.60;99.90;;;12.60;100.00;97492.56;5107423;28;20439;-80
2021/08/26 07:03:18;;;;;;;13.70;12.40;;;13.70;99.90;;;12.57;100.00;97490.34;5104015;28;20477;-79
2021/08/26 07:06:05;;;;;;;15.47;13.93;;;13.70;99.90;;;12.73;100.00;97507.69;5135941;27;21772;-80
2021/08/26 07:08:53;;;;;;;14.70;12.80;;;13.70;99.90;;;12.84;100.00;97497.91;5118775;28;20419;-80
2021/08/26 07:11:40;;;;;;;12.77;11.67;;;13.80;99.90;;;12.91;100.00;97471.44;5097356;28;20983;-76
2021/08/26 07:14:28;;;;;;;12.40;11.20;;;14.00;99.90;;;13.23;99.25;97506.16;5109976;28;20440;-77
2021/08/26 07:17:16;;;;;;;11.57;10.47;;;14.20;99.90;;;13.38;98.02;97493.91;5108535;28;21288;-77
2021/08/26 07:20:05;;;;;;;12.60;11.50;;;14.40;99.50;;;13.75;98.26;97496.16;5108788;28;21054;-75
2021/08/26 07:22:53;;;;;;;10.80;9.80;;;14.70;99.90;;;13.96;96.14;97496.44;5117008;28;20460;-79
2021/08/26 07:25:42;;;;;;;11.30;9.50;;;14.90;96.30;;;13.91;95.72;97496.38;5098407;28;20447;-78
2021/08/26 07:28:29;;;;;;;8.80;8.10;;;14.90;95.60;;;13.94;94.69;97504.84;5110240;28;20427;-78
2021/08/26 07:31:21;;;;;;;8.23;7.43;;;14.90;94.80;;;14.41;92.37;97503.56;5116624;28;20455;-80
2021/08/26 07:34:08;;;;;;;7.20;6.27;;;15.30;92.80;;;14.85;89.15;97496.47;5121298;28;20439;-80
2021/08/26 07:37:00;;;;;;;7.93;7.30;;;15.70;91.00;;;15.10;88.77;97497.81;5119824;28;20526;-80
2021/08/26 07:39:48;;;;;;;7.97;7.30;;;16.00;90.50;;;15.10;88.01;97497.81;5119494;28;20485;-80
2021/08/26 07:42:36;;;;;;;7.20;6.67;;;16.10;89.80;;;14.94;87.66;97500.38;5118051;28;20443;-80
2021/08/26 07:45:25;;;;;;;7.23;6.63;;;16.00;88.50;;;14.83;88.98;97482.31;5123743;27;20514;-80
2021/08/26 07:48:13;;;;;;;7.73;7.13;;;16.00;90.00;;;14.80;90.88;97499.94;5108211;28;20434;-81
2021/08/26 07:51:03;;;;;;;7.20;6.60;;;15.80;91.10;;;14.43;90.71;97474.22;5109999;27;20459;-79
2021/08/26 07:53:52;;;;;;;9.00;8.10;;;15.70;90.60;;;13.95;96.72;97500.25;5126285;27;20450;-79
2021/08/26 07:56:40;;;;;;;8.27;7.57;;;15.10;96.00;;;13.56;98.88;97493.69;5120824;27;20458;-81
2021/08/26 07:59:27;;;;;;;8.93;8.13;;;14.80;99.90;;;13.51;99.09;97499.06;5120777;27;20445;-81
2021/08/26 08:02:15;;;;;;;10.00;9.10;;;14.60;99.90;;;13.35;99.76;97472.72;5128311;27;20445;-81
2021/08/26 08:05:03;;;;;;;9.80;9.00;;;14.50;99.90;;;13.32;99.70;97515.56;5119076;27;20458;-79
2021/08/26 08:07:51;;;;;;;12.70;11.50;;;14.40;99.90;;;13.21;100.00;97496.66;5105209;27;20993;-80
2021/08/26 08:10:49;;;;;;;16.63;14.73;;;14.30;99.90;;;13.22;100.00;97503.72;5115917;27;20458;-79
2021/08/26 08:13:37;;;;;;;14.13;12.93;;;14.20;99.90;;;13.27;100.00;97496.47;5115415;27;20443;-79
2021/08/26 08:16:33;;;;;;;12.97;11.87;;;14.30;99.90;;;13.47;100.00;97476.19;5113981;27;20551;-82
2021/08/26 08:19:24;;;;;;;9.27;8.47;;;14.50;99.90;;;13.58;99.58;97497.00;5115233;27;21171;-82
2021/08/26 08:22:11;;;;;;;6.40;5.80;;;14.60;99.90;;;13.60;98.82;97489.44;5104867;27;20434;-80
2021/08/26 08:25:01;;;;;;;5.90;5.40;;;14.60;99.90;;;13.54;98.55;97497.75;5102308;28;20458;-81
2021/08/26 08:28:00;;;;;;;6.73;6.13;;;14.60;98.90;;;13.53;99.33;97486.06;5104923;27;20446;-83
2021/08/26 08:30:52;;;;;;;5.03;4.63;;;14.50;99.90;;;13.55;98.07;97485.81;5122223;27;20561;-82
2021/08/26 08:33:44;;;;;;;4.93;4.53;;;14.60;98.30;;;13.72;95.74;97485.78;5105244;28;20978;-81
2021/08/26 08:36:38;;;;;;;4.40;3.80;;;14.70;95.20;;;13.71;94.51;97487.69;5127141;27;20445;-80
2021/08/26 08:39:28;;;;;;;5.47;4.97;;;14.70;93.70;;;13.74;94.96;97468.19;5113068;27;20443;-80
2021/08/26 08:42:15;;;;;;;5.80;4.63;;;14.90;94.80;;;14.11;93.86;97491.22;5113988;27;20439;-79
2021/08/26 08:45:07;;;;;;;3.73;3.43;;;15.10;93.80;;;14.31;89.51;97484.41;5118075;27;20525;-80
2021/08/26 08:47:59;;;;;;;5.07;3.47;;;15.30;90.40;;;14.29;88.30;97479.25;5121131;27;20466;-80
2021/08/26 08:50:47;;;;;;;4.50;3.00;;;15.30;89.00;;;14.25;86.18;97482.72;5103704;27;20439;-80
2021/08/26 08:53:36;;;;;;;5.13;3.10;;;15.40;86.80;;;14.05;86.37;97481.38;5115015;27;20493;-81
2021/08/26 08:56:26;;;;;;;3.90;2.70;;;15.20;86.60;;;14.28;85.03;97495.78;5118647;28;20531;-80
2021/08/26 08:59:15;;;;;;;3.77;2.60;;;15.30;85.50;;;14.77;81.56;97488.75;5111617;27;20528;-76
2021/08/26 09:02:04;;;;;;;3.40;3.10;;;15.60;83.50;;;15.12;84.47;97504.63;5131280;27;20502;-79
2021/08/26 09:04:57;;;;;;;3.93;3.63;;;16.00;85.80;;;15.20;81.34;97492.44;5121833;27;21021;-79
2021/08/26 09:07:44;;;;;;;2.93;2.63;;;16.20;83.20;;;15.07;81.13;97495.59;5107185;28;20440;-79
2021/08/26 09:10:37;;;;;;;4.27;3.23;;;16.10;81.70;;;15.06;79.77;97481.19;5116318;27;20462;-80
2021/08/26 09:13:34;;;;;;;5.70;2.80;;;16.10;80.40;;;15.36;78.40;97495.31;5128049;27;20454;-80
2021/08/26 09:16:37;;;;;;;4.67;3.27;;;16.30;79.40;;;15.59;80.20;97488.66;5102259;28;20489;-80
2021/08/26 09:19:30;;;;;;;3.57;3.17;;;16.40;81.00;;;16.23;75.71;97475.19;5123074;27;20454;-79
2021/08/26 09:22:24;;;;;;;4.17;2.47;;;17.00;78.00;;;16.39;70.91;97479.63;5111486;28;20442;-80
2021/08/26 09:25:14;;;;;;;3.37;2.17;;;17.30;72.20;;;15.75;70.93;97470.56;5128590;27;20459;-79
2021/08/26 09:28:02;;;;;;;2.90;2.10;;;16.90;69.80;;;15.67;71.96;97473.75;5113192;28;20461;-79
2021/08/26 09:30:49;;;;;;;2.47;2.27;;;16.70;70.70;;;15.95;71.56;97474.50;5124439;27;20458;-78
2021/08/26 09:33:55;;;;;;;2.80;2.40;;;16.90;70.60;;;15.99;73.46;97475.59;5121666;28;20450;-78
2021/08/26 09:36:57;;;;;;;4.00;2.67;;;17.00;71.90;;;15.97;70.48;97480.50;5112446;28;20508;-78
2021/08/26 09:39:45;;;;;;;2.93;2.37;;;17.00;69.70;;;16.32;70.11;97479.06;5124100;27;20467;-79
2021/08/26 09:42:33;;;;;;;5.70;2.80;;;17.10;69.70;;;16.70;67.54;97468.81;5109511;27;20455;-79
2021/08/26 09:45:23;;;;;;;2.67;2.30;;;17.50;67.80;;;16.85;65.08;97464.47;5115030;27;20467;-78
2021/08/26 09:48:13;;;;;;;3.83;2.90;;;17.80;65.60;;;16.90;65.34;97466.41;5082035;28;20518;-79
2021/08/26 09:51:01;;;;;;;4.20;2.90;;;17.80;65.30;;;17.16;64.38;97470.00;5122701;27;20515;-79
2021/08/26 09:53:50;;;;;;;5.70;2.80;;;18.00;65.00;;;17.09;64.44;97474.94;5122447;27;20526;-79
2021/08/26 09:56:43;;;;;;;2.90;2.40;;;18.00;63.90;;;17.02;64.52;97458.81;5116116;27;20913;-78
2021/08/26 09:59:50;;;;;;;3.20;1.80;;;18.00;64.30;;;16.85;60.97;97465.31;5117575;27;20783;-78
2021/08/26 10:02:49;;;;;;;2.47;1.70;;;17.90;60.80;;;17.13;62.17;97495.94;5109974;27;20447;-78
2021/08/26 10:05:37;;;;;;;2.53;2.33;;;18.00;62.30;;;16.79;61.53;97438.28;5098070;28;20447;-78
2021/08/26 10:08:26;;;;;;;3.67;2.20;;;17.90;61.30;;;17.41;61.47;97471.13;5118768;27;20445;-78
2021/08/26 10:11:18;;;;;;;2.40;2.17;;;18.20;62.20;;;17.58;60.42;97459.09;5110611;27;20431;-79
2021/08/26 10:14:06;;;;;;;2.63;2.00;;;18.50;61.20;;;17.73;59.50;97472.72;5100866;28;20443;-78
2021/08/26 10:16:57;;;;;;;3.63;1.83;;;18.60;60.50;;;18.06;57.07;97473.22;5106597;28;20544;-79
2021/08/26 10:19:46;;;;;;;3.73;2.33;;;18.90;59.50;;;17.94;58.45;97472.69;5109890;27;20427;-78
2021/08/26 10:22:34;;;;;;;2.10;1.90;;;18.90;59.60;;;17.63;58.25;97479.03;5121770;27;20474;-77
2021/08/26 10:25:22;;;;;;;5.30;2.40;;;18.60;59.10;;;17.59;61.06;97471.66;5104417;27;20418;-77
2021/08/26 10:28:11;;;;;;;3.00;2.60;;;18.60;60.80;;;17.18;61.20;97478.75;5096704;27;20487;-77
2021/08/26 10:30:58;;;;;;;2.53;2.33;;;18.30;60.10;;;17.00;62.14;97477.38;5108987;27;21034;-79
2021/08/26 10:33:46;;;;;;;2.47;2.30;;;18.00;60.80;;;16.82;62.99;97467.75;5096970;27;20439;-78
2021/08/26 10:36:48;;;;;;;3.10;2.30;;;17.80;61.30;;;16.75;62.49;97465.28;5122540;27;20542;-82
2021/08/26 10:39:39;;;;;;;2.63;2.40;;;17.80;61.10;;;17.11;62.23;97470.00;5121374;27;20465;-79
2021/08/26 10:42:44;;;;;;;2.10;1.90;;;17.90;61.30;;;17.72;60.32;97468.34;5110903;27;20902;-78
2021/08/26 10:45:50;;;;;;;3.30;2.57;;;18.40;60.80;;;18.11;57.73;97466.94;5109461;27;20467;-78
2021/08/26 10:48:39;;;;;;;2.93;2.00;;;18.90;59.10;;;18.71;57.01;97468.03;5109106;28;20450;-78
2021/08/26 10:51:43;;;;;;;2.90;2.27;;;19.30;59.30;;;18.65;54.97;97459.03;5102091;28;20465;-77
2021/08/26 10:54:32;;;;;;;2.30;2.00;;;19.50;57.90;;;18.38;55.58;97457.53;5114887;27;20463;-77
2021/08/26 10:57:30;;;;;;;2.50;2.30;;;19.50;57.80;;;17.56;57.47;97462.91;5111324;27;20463;-78
2021/08/26 11:00:50;;;;;;;3.30;2.63;;;18.70;57.60;;;17.31;58.62;97469.22;5113107;27;20427;-77
2021/08/26 11:04:02;;;;;;;2.97;2.70;;;18.30;58.20;;;17.23;60.61;97475.19;5018557;28;20985;-78
2021/08/26 11:06:51;;;;;;;6.27;3.10;;;18.20;59.10;;;17.34;59.58;97470.56;5111090;27;20816;-78
2021/08/26 11:09:40;;;;;;;3.43;2.50;;;18.10;59.10;;;17.49;59.22;97462.34;5107508;27;20429;-79
2021/08/26 11:12:28;;;;;;;4.03;2.90;;;18.30;59.00;;;17.58;57.96;97475.47;5114594;27;20452;-78
2021/08/26 11:15:26;;;;;;;2.90;2.33;;;18.30;58.40;;;17.67;57.86;97458.25;5100484;28;20451;-78
2021/08/26 11:18:31;;;;;;;2.83;2.20;;;18.60;58.40;;;17.64;58.40;97475.19;5107756;28;20436;-78
2021/08/26 11:22:06;;;;;;;2.90;2.37;;;18.60;58.40;;;17.48;57.27;97470.84;5104790;28;20508;-79
2021/08/26 11:24:59;;;;;;;3.83;2.67;;;18.50;57.80;;;17.35;57.64;97477.66;5112275;28;20563;-78
2021/08/26 11:27:47;;;;;;;3.90;2.23;;;18.30;57.40;;;17.68;56.91;97459.88;5118913;28;20436;-78
2021/08/26 11:30:36;;;;;;;2.60;1.87;;;18.50;57.60;;;18.15;54.92;97467.19;5110066;28;20470;-78
2021/08/26 11:33:27;;;;;;;5.03;3.70;;;18.90;56.80;;;18.80;53.88;97463.59;5106511;28;20507;-79
2021/08/26 11:36:19;;;;;;;2.37;1.90;;;19.40;57.00;;;19.33;51.65;97463.00;5107356;28;20523;-78
2021/08/26 11:39:12;;;;;;;3.90;2.00;;;20.00;55.70;;;19.10;49.93;97456.31;5086787;28;20442;-80
2021/08/26 11:42:00;;;;;;;2.13;1.53;;;20.00;54.30;;;19.09;50.05;97446.47;5085490;28;21079;-79
2021/08/26 11:45:22;;;;;;;4.00;2.23;;;20.00;54.20;;;19.22;50.43;97455.97;5113774;28;20450;-79
2021/08/26 11:48:10;;;;;;;3.20;1.97;;;20.00;54.70;;;19.49;50.34;97430.81;5101742;28;22411;-79
2021/08/26 11:50:57;;;;;;;2.60;1.83;;;20.20;55.00;;;19.96;49.95;97452.31;5119543;28;20971;-79
2021/08/26 11:53:46;;;;;;;2.47;1.70;;;20.60;55.00;;;19.81;49.53;97456.81;5104664;28;20446;-79